Terminal Aerodrome Forecast
Issued by NWS

Home | Current Version | Previous Version | Text Only | Print | Product List | Glossary On
Versions: 1 2 3 4 5 6 7 8 9 10 11 12 13 14 15 16
956
FTUS41 KGYX 192328
TAFRKD
TAF
KRKD 192328Z 2000/2024 30004KT P6SM BKN050
      TEMPO 2000/2001 P6SM -SHRA BKN025
     FM201300 33010G16KT P6SM BKN060
      AMD LTD TO CLD VIS AND WIND=

USA.gov is the U.S. government's official web portal to all federal, state and local government web resources and services.